Time;durP1;ratioP1;P1;durP2;ratioP2;P2;SDS_P1;SDS_P2;PMS_P1;PMS_P2;Temp;Humidity;BMP_temperature;BMP_pressure;BME280_temperature;BME280_humidity;BME280_pressure;Samples;Min_cycle;Max_cycle;Signal;HPM_P1;HPM_P2
2022/06/22 00:00:14;;;;;;;;;;;13.00;99.90;;;;;;5029404;28;19917;-73
2022/06/22 00:02:40;;;;;;;;;;;13.00;99.90;;;;;;5029475;28;19944;-73
2022/06/22 00:05:12;;;;;;;;;;;12.80;99.90;;;;;;5029008;28;19921;-73
2022/06/22 00:07:40;;;;;;;;;;;12.70;99.90;;;;;;5012087;28;19917;-72
2022/06/22 00:10:18;;;;;;;;;;;12.70;99.90;;;;;;5045644;28;19921;-73
2022/06/22 00:12:48;;;;;;;;;;;12.70;99.90;;;;;;5045700;28;19917;-72
2022/06/22 00:15:20;;;;;;;;;;;12.70;99.90;;;;;;5028414;28;19917;-72
2022/06/22 00:17:45;;;;;;;;;;;12.70;99.90;;;;;;5022935;28;21561;-72
2022/06/22 00:20:24;;;;;;;;;;;12.70;99.90;;;;;;5045922;28;20397;-72
2022/06/22 00:22:55;;;;;;;;;;;12.60;99.90;;;;;;5027292;28;19918;-72
2022/06/22 00:25:30;;;;;;;;;;;12.60;99.90;;;;;;5011169;28;19925;-73
2022/06/22 00:28:15;;;;;;;;;;;12.50;99.90;;;;;;5028682;28;20317;-72
2022/06/22 00:30:45;;;;;;;;;;;12.30;99.90;;;;;;5010363;28;20052;-72
2022/06/22 00:33:22;;;;;;;;;;;12.30;99.90;;;;;;5026835;28;19917;-72
2022/06/22 00:35:47;;;;;;;;;;;12.00;99.90;;;;;;5044456;28;20293;-73
2022/06/22 00:38:15;;;;;;;;;;;11.90;99.90;;;;;;5028697;28;19918;-72
2022/06/22 00:40:41;;;;;;;;;;;11.90;99.90;;;;;;5028111;28;20290;-73
2022/06/22 00:43:07;;;;;;;;;;;12.00;99.90;;;;;;5012815;28;20293;-72
2022/06/22 00:45:34;;;;;;;;;;;11.90;99.90;;;;;;5041555;28;19924;-72
2022/06/22 00:48:04;;;;;;;;;;;12.00;99.90;;;;;;5009179;28;19917;-72
2022/06/22 00:50:37;;;;;;;;;;;12.00;99.90;;;;;;5009091;28;19969;-72
2022/06/22 00:53:05;;;;;;;;;;;11.90;99.90;;;;;;5042881;28;20004;-72
2022/06/22 00:55:30;;;;;;;;;;;11.90;99.90;;;;;;5044820;28;20377;-71
2022/06/22 00:58:00;;;;;;;;;;;11.80;99.90;;;;;;5009366;28;19949;-71
2022/06/22 01:00:28;;;;;;;;;;;11.80;99.90;;;;;;5010424;28;20377;-71
2022/06/22 01:03:16;;;;;;;;;;;11.80;99.90;;;;;;5025466;28;19918;-71
2022/06/22 01:05:48;;;;;;;;;;;11.70;99.90;;;;;;5009074;28;19972;-72
2022/06/22 01:08:24;;;;;;;;;;;11.70;99.90;;;;;;5012762;28;19925;-72
2022/06/22 01:11:02;;;;;;;;;;;11.50;99.90;;;;;;5029128;28;19918;-72
2022/06/22 01:13:30;;;;;;;;;;;11.30;99.90;;;;;;5012968;28;19941;-72
2022/06/22 01:15:57;;;;;;;;;;;11.30;99.90;;;;;;5035394;28;19944;-72
2022/06/22 01:18:38;;;;;;;;;;;11.40;99.90;;;;;;5048935;28;19917;-71
2022/06/22 01:21:09;;;;;;;;;;;11.50;99.90;;;;;;5029848;28;19936;-72
2022/06/22 01:23:53;;;;;;;;;;;11.40;99.90;;;;;;5032167;28;19918;-72
2022/06/22 01:26:27;;;;;;;;;;;11.40;99.90;;;;;;5031440;28;20127;-72
2022/06/22 01:28:54;;;;;;;;;;;11.40;99.90;;;;;;5015556;28;19918;-72
2022/06/22 01:31:20;;;;;;;;;;;11.40;99.90;;;;;;5048087;28;20004;-72
2022/06/22 01:33:47;;;;;;;;;;;11.30;99.90;;;;;;5015474;28;19983;-72
2022/06/22 01:36:16;;;;;;;;;;;11.30;99.90;;;;;;5006198;28;19918;-72
2022/06/22 01:38:42;;;;;;;;;;;11.30;99.90;;;;;;5012541;28;19917;-72
2022/06/22 01:41:33;;;;;;;;;;;11.30;99.90;;;;;;5011905;28;19937;-72
2022/06/22 01:44:05;;;;;;;;;;;11.30;99.90;;;;;;5028381;28;19918;-72
2022/06/22 01:46:40;;;;;;;;;;;11.20;99.90;;;;;;5036299;28;20008;-72
2022/06/22 01:49:10;;;;;;;;;;;11.20;99.90;;;;;;5047012;28;19917;-72
2022/06/22 01:51:39;;;;;;;;;;;11.10;99.90;;;;;;5031702;28;19917;-72
2022/06/22 01:54:09;;;;;;;;;;;11.00;99.90;;;;;;5016986;28;20019;-72
2022/06/22 01:56:41;;;;;;;;;;;10.80;99.90;;;;;;5040835;28;19964;-72
2022/06/22 01:59:19;;;;;;;;;;;10.70;99.90;;;;;;5042830;28;19948;-72
2022/06/22 02:01:44;;;;;;;;;;;10.50;99.90;;;;;;5046978;28;19969;-72
2022/06/22 02:04:23;;;;;;;;;;;10.40;99.90;;;;;;5030407;28;19960;-72
2022/06/22 02:10:01;;;;;;;;;;;10.30;99.90;;;;;;5033075;28;19917;-72
2022/06/22 02:12:30;;;;;;;;;;;10.30;99.90;;;;;;5047081;28;19921;-72
2022/06/22 02:15:05;;;;;;;;;;;10.40;99.90;;;;;;5014524;28;20327;-72
2022/06/22 02:17:34;;;;;;;;;;;10.30;99.90;;;;;;5030507;28;19917;-72
2022/06/22 02:20:18;;;;;;;;;;;10.40;99.90;;;;;;5013914;28;20015;-72
2022/06/22 02:22:44;;;;;;;;;;;10.40;99.90;;;;;;5011355;28;19968;-72
2022/06/22 02:25:10;;;;;;;;;;;10.30;99.90;;;;;;5026179;28;20357;-72
2022/06/22 02:27:35;;;;;;;;;;;10.30;99.90;;;;;;5014507;28;19918;-72
2022/06/22 02:30:01;;;;;;;;;;;10.20;99.90;;;;;;5030182;28;19928;-71
2022/06/22 02:32:37;;;;;;;;;;;10.10;99.90;;;;;;5014750;28;19917;-72
2022/06/22 02:35:04;;;;;;;;;;;10.00;99.90;;;;;;5029801;28;20365;-72
2022/06/22 02:37:32;;;;;;;;;;;10.00;99.90;;;;;;5044652;28;19917;-72
2022/06/22 02:40:00;;;;;;;;;;;10.10;99.90;;;;;;5047094;28;19922;-72
2022/06/22 02:45:11;;;;;;;;;;;10.10;99.90;;;;;;5013407;28;19917;-72
2022/06/22 02:47:45;;;;;;;;;;;10.10;99.90;;;;;;5030555;28;19917;-72
2022/06/22 02:50:17;;;;;;;;;;;10.10;99.90;;;;;;5013153;28;19918;-72
2022/06/22 02:52:45;;;;;;;;;;;10.10;99.90;;;;;;5047144;28;19917;-72
2022/06/22 02:55:16;;;;;;;;;;;10.10;99.90;;;;;;5004104;28;19953;-72
2022/06/22 02:57:41;;;;;;;;;;;10.10;99.90;;;;;;5010985;28;20021;-72
2022/06/22 03:00:08;;;;;;;;;;;9.90;99.90;;;;;;5046182;28;20380;-72
2022/06/22 03:02:34;;;;;;;;;;;9.80;99.90;;;;;;5013532;28;19917;-71
2022/06/22 03:05:00;;;;;;;;;;;9.80;99.90;;;;;;5029461;28;19917;-72
2022/06/22 03:07:27;;;;;;;;;;;9.80;99.90;;;;;;5012843;28;19921;-72
2022/06/22 03:09:53;;;;;;;;;;;9.90;99.90;;;;;;5046689;28;19917;-72
2022/06/22 03:12:19;;;;;;;;;;;9.90;99.90;;;;;;4997445;28;19971;-72
2022/06/22 03:14:48;;;;;;;;;;;9.80;99.90;;;;;;5029301;28;19996;-72
2022/06/22 03:17:16;;;;;;;;;;;9.80;99.90;;;;;;5013649;28;19967;-72
2022/06/22 03:19:43;;;;;;;;;;;9.80;99.90;;;;;;5045732;28;19968;-72
2022/06/22 03:22:13;;;;;;;;;;;9.80;99.90;;;;;;5045497;28;19928;-72
2022/06/22 03:24:59;;;;;;;;;;;9.70;99.90;;;;;;5046900;28;19925;-72
2022/06/22 03:27:28;;;;;;;;;;;9.60;99.90;;;;;;5026997;28;19918;-72
2022/06/22 03:29:56;;;;;;;;;;;9.50;99.90;;;;;;5012650;28;19967;-71
2022/06/22 03:32:25;;;;;;;;;;;9.40;99.90;;;;;;5029661;28;19917;-71
2022/06/22 03:34:55;;;;;;;;;;;9.40;99.90;;;;;;5028384;28;19918;-72
2022/06/22 03:37:24;;;;;;;;;;;9.40;99.90;;;;;;5012696;28;19917;-71
2022/06/22 03:39:52;;;;;;;;;;;9.50;99.90;;;;;;5011433;28;19921;-71
2022/06/22 03:42:24;;;;;;;;;;;9.50;99.90;;;;;;5026656;28;19971;-71
2022/06/22 03:44:56;;;;;;;;;;;9.50;99.90;;;;;;5010021;28;19917;-71
2022/06/22 03:47:27;;;;;;;;;;;9.50;99.90;;;;;;5035588;28;19917;-71
2022/06/22 03:50:13;;;;;;;;;;;9.50;99.90;;;;;;5028483;28;20381;-71
2022/06/22 03:52:43;;;;;;;;;;;9.50;99.90;;;;;;5035551;28;19924;-71
2022/06/22 03:55:14;;;;;;;;;;;9.50;99.90;;;;;;5011992;28;19925;-72
2022/06/22 03:57:43;;;;;;;;;;;9.40;99.90;;;;;;5026152;28;20381;-72
2022/06/22 04:00:09;;;;;;;;;;;9.30;99.90;;;;;;5010374;28;20652;-71
2022/06/22 04:02:35;;;;;;;;;;;9.30;99.90;;;;;;5005239;28;19925;-71
2022/06/22 04:05:01;;;;;;;;;;;9.20;99.90;;;;;;5042477;28;19921;-71
2022/06/22 04:07:31;;;;;;;;;;;9.20;99.90;;;;;;5028488;28;19955;-71
2022/06/22 04:09:57;;;;;;;;;;;9.20;99.90;;;;;;5045763;28;20009;-71
2022/06/22 04:12:31;;;;;;;;;;;9.10;99.90;;;;;;5027690;28;19917;-72
2022/06/22 04:15:05;;;;;;;;;;;9.10;99.90;;;;;;5011800;28;20317;-72
2022/06/22 04:17:38;;;;;;;;;;;9.10;99.90;;;;;;5041862;28;20305;-72
2022/06/22 04:20:23;;;;;;;;;;;9.10;99.90;;;;;;5028591;28;20648;-72
2022/06/22 04:22:52;;;;;;;;;;;9.20;99.90;;;;;;4984510;28;19925;-72
2022/06/22 04:25:24;;;;;;;;;;;9.20;99.90;;;;;;5025955;28;19960;-72
2022/06/22 04:27:51;;;;;;;;;;;9.30;99.90;;;;;;5026163;28;20258;-72
2022/06/22 04:30:21;;;;;;;;;;;9.40;99.90;;;;;;5026172;28;20403;-72
2022/06/22 04:32:59;;;;;;;;;;;9.40;99.90;;;;;;5021719;28;19917;-72
2022/06/22 04:35:30;;;;;;;;;;;9.50;99.90;;;;;;5045570;28;19924;-72
2022/06/22 04:38:03;;;;;;;;;;;9.50;99.90;;;;;;5003498;28;19928;-71
2022/06/22 04:40:41;;;;;;;;;;;9.50;99.90;;;;;;5011553;28;19924;-71
2022/06/22 04:43:08;;;;;;;;;;;9.50;99.90;;;;;;5032899;28;19956;-71
2022/06/22 04:45:36;;;;;;;;;;;9.60;99.90;;;;;;5014603;28;19921;-71
2022/06/22 04:48:03;;;;;;;;;;;9.70;99.90;;;;;;5014881;28;19971;-71
2022/06/22 04:50:29;;;;;;;;;;;9.70;99.90;;;;;;5032228;28;19925;-72
2022/06/22 04:52:56;;;;;;;;;;;9.80;99.90;;;;;;5004248;28;19917;-71
2022/06/22 04:55:25;;;;;;;;;;;9.90;99.90;;;;;;5046004;28;19940;-72
2022/06/22 04:57:54;;;;;;;;;;;9.90;99.90;;;;;;5008007;28;19965;-72
2022/06/22 05:00:21;;;;;;;;;;;10.00;99.90;;;;;;5044336;28;19917;-72
2022/06/22 05:02:49;;;;;;;;;;;10.10;99.90;;;;;;5014948;28;19924;-72
2022/06/22 05:05:15;;;;;;;;;;;10.10;99.90;;;;;;5039754;28;19918;-72
2022/06/22 05:07:50;;;;;;;;;;;10.30;99.90;;;;;;5019635;28;19928;-72
2022/06/22 05:10:24;;;;;;;;;;;10.40;99.90;;;;;;5032526;28;19918;-72
2022/06/22 05:12:52;;;;;;;;;;;10.50;99.90;;;;;;5014809;28;19968;-72
2022/06/22 05:15:19;;;;;;;;;;;10.50;99.90;;;;;;5043587;28;19995;-72
2022/06/22 05:17:45;;;;;;;;;;;10.70;99.90;;;;;;5015989;28;19917;-72
2022/06/22 05:20:26;;;;;;;;;;;10.70;99.90;;;;;;5007550;28;19917;-72
2022/06/22 05:22:54;;;;;;;;;;;10.90;99.90;;;;;;5012401;28;19968;-72
2022/06/22 05:25:21;;;;;;;;;;;11.10;99.90;;;;;;5033358;28;19917;-72
2022/06/22 05:27:58;;;;;;;;;;;11.20;99.90;;;;;;5005788;28;19917;-73
2022/06/22 05:30:23;;;;;;;;;;;11.30;99.90;;;;;;5038317;28;20004;-72
2022/06/22 05:32:52;;;;;;;;;;;11.50;99.90;;;;;;5047432;28;20008;-73
2022/06/22 05:35:27;;;;;;;;;;;11.70;99.90;;;;;;5026202;28;19940;-73
2022/06/22 05:37:53;;;;;;;;;;;11.90;99.90;;;;;;4999020;28;19918;-72
2022/06/22 05:40:21;;;;;;;;;;;12.20;99.90;;;;;;5013534;28;19927;-73
2022/06/22 05:42:47;;;;;;;;;;;12.40;99.90;;;;;;5031768;28;19921;-72
2022/06/22 05:45:14;;;;;;;;;;;12.50;99.90;;;;;;5013611;28;20063;-73
2022/06/22 05:47:40;;;;;;;;;;;12.60;99.90;;;;;;5048053;28;19956;-73
2022/06/22 05:50:17;;;;;;;;;;;12.70;99.90;;;;;;5031174;28;20451;-73
2022/06/22 05:52:46;;;;;;;;;;;12.90;99.90;;;;;;5048253;28;19917;-74
2022/06/22 05:55:17;;;;;;;;;;;13.00;99.90;;;;;;5046709;28;19925;-73
2022/06/22 05:57:47;;;;;;;;;;;13.20;99.90;;;;;;5023157;28;19917;-73
2022/06/22 06:00:28;;;;;;;;;;;13.40;99.90;;;;;;5013822;28;20115;-73
2022/06/22 06:03:07;;;;;;;;;;;13.60;99.90;;;;;;5042771;28;20004;-73
2022/06/22 06:05:39;;;;;;;;;;;13.80;99.90;;;;;;5013037;28;19918;-73
2022/06/22 06:08:09;;;;;;;;;;;14.00;99.90;;;;;;5004864;28;19917;-73
2022/06/22 06:10:37;;;;;;;;;;;14.20;99.90;;;;;;5041039;28;20378;-73
2022/06/22 06:13:07;;;;;;;;;;;14.30;99.90;;;;;;5012846;28;19917;-73
2022/06/22 06:15:34;;;;;;;;;;;14.50;99.90;;;;;;5046321;28;20007;-73
2022/06/22 06:18:00;;;;;;;;;;;14.60;99.90;;;;;;5004715;28;19918;-73
2022/06/22 06:20:25;;;;;;;;;;;14.80;99.90;;;;;;5015062;28;19928;-73
2022/06/22 06:22:54;;;;;;;;;;;14.90;99.90;;;;;;5047676;28;20358;-73
2022/06/22 06:28:20;;;;;;;;;;;15.20;99.90;;;;;;5014561;28;19917;-73
2022/06/22 06:30:47;;;;;;;;;;;15.30;99.90;;;;;;5046954;28;19917;-73
2022/06/22 06:33:13;;;;;;;;;;;15.40;99.90;;;;;;5012461;28;19924;-73
2022/06/22 06:35:51;;;;;;;;;;;15.60;99.90;;;;;;5013471;28;19917;-72
2022/06/22 06:38:23;;;;;;;;;;;15.70;99.90;;;;;;5014654;28;20266;-73
2022/06/22 06:40:53;;;;;;;;;;;15.90;99.90;;;;;;5041351;28;19922;-73
2022/06/22 06:43:21;;;;;;;;;;;16.00;99.90;;;;;;5028524;28;19917;-73
2022/06/22 06:45:47;;;;;;;;;;;16.10;99.90;;;;;;5046841;28;19987;-73
2022/06/22 06:48:16;;;;;;;;;;;16.20;99.90;;;;;;5014169;28;20369;-73
2022/06/22 06:50:45;;;;;;;;;;;16.30;99.90;;;;;;5030069;28;20012;-73
2022/06/22 06:53:17;;;;;;;;;;;16.40;99.90;;;;;;5013976;28;19917;-73
2022/06/22 06:55:54;;;;;;;;;;;16.40;99.90;;;;;;5012081;28;19928;-73
2022/06/22 06:58:27;;;;;;;;;;;16.60;99.90;;;;;;5047067;28;19925;-73
2022/06/22 07:00:53;;;;;;;;;;;16.70;99.90;;;;;;5013071;28;19922;-73
2022/06/22 07:03:21;;;;;;;;;;;16.90;99.90;;;;;;5028829;28;19941;-73
2022/06/22 07:05:48;;;;;;;;;;;16.90;99.90;;;;;;5045485;28;19918;-73
2022/06/22 07:08:20;;;;;;;;;;;17.00;99.90;;;;;;5046895;28;19996;-73
2022/06/22 07:10:45;;;;;;;;;;;17.00;99.90;;;;;;5011853;28;20441;-73
2022/06/22 07:13:20;;;;;;;;;;;17.10;99.90;;;;;;5027565;28;20231;-73
2022/06/22 07:15:48;;;;;;;;;;;17.20;99.90;;;;;;5033428;28;20007;-73
2022/06/22 07:18:27;;;;;;;;;;;17.30;99.90;;;;;;5013631;28;19921;-73
2022/06/22 07:20:56;;;;;;;;;;;17.40;99.90;;;;;;5046041;28;19921;-73
2022/06/22 07:23:25;;;;;;;;;;;17.40;99.90;;;;;;5046467;28;19967;-73
2022/06/22 07:25:58;;;;;;;;;;;17.40;99.90;;;;;;5011576;28;19949;-73
2022/06/22 07:28:36;;;;;;;;;;;17.50;99.90;;;;;;5046523;28;19917;-73
2022/06/22 07:31:15;;;;;;;;;;;17.60;99.90;;;;;;5045685;28;19918;-73
2022/06/22 07:33:50;;;;;;;;;;;17.70;99.90;;;;;;5012297;28;19917;-73
2022/06/22 07:36:22;;;;;;;;;;;17.80;99.90;;;;;;5046778;28;19922;-73
2022/06/22 07:38:54;;;;;;;;;;;17.80;99.90;;;;;;5045588;28;19925;-73
2022/06/22 07:41:22;;;;;;;;;;;17.90;99.90;;;;;;5022859;28;20454;-68
2022/06/22 07:43:50;;;;;;;;;;;18.00;99.90;;;;;;5045612;28;19968;-73
2022/06/22 07:46:28;;;;;;;;;;;18.10;99.90;;;;;;5027238;28;20333;-72
2022/06/22 07:48:57;;;;;;;;;;;18.10;99.90;;;;;;5042292;28;19925;-73
2022/06/22 07:51:24;;;;;;;;;;;18.30;99.90;;;;;;5023411;28;19918;-73
2022/06/22 07:53:57;;;;;;;;;;;18.40;99.90;;;;;;5027744;28;19917;-73
2022/06/22 07:56:31;;;;;;;;;;;18.50;99.90;;;;;;5022104;28;20385;-72
2022/06/22 07:59:09;;;;;;;;;;;18.70;99.90;;;;;;5023447;28;19917;-73
2022/06/22 08:01:38;;;;;;;;;;;18.70;99.90;;;;;;5022941;28;19975;-73
2022/06/22 08:04:29;;;;;;;;;;;18.80;99.90;;;;;;5012594;28;19917;-73
2022/06/22 08:07:00;;;;;;;;;;;18.90;99.90;;;;;;5043805;28;19992;-73
2022/06/22 08:09:34;;;;;;;;;;;19.00;99.90;;;;;;5027585;28;19979;-73
2022/06/22 08:12:03;;;;;;;;;;;19.10;99.90;;;;;;5040490;28;19923;-72
2022/06/22 08:14:32;;;;;;;;;;;19.20;99.90;;;;;;5043689;28;20008;-72
2022/06/22 08:16:59;;;;;;;;;;;19.20;99.90;;;;;;5012305;28;19924;-72
2022/06/22 08:19:29;;;;;;;;;;;19.30;99.90;;;;;;5042214;28;19917;-73
2022/06/22 08:21:58;;;;;;;;;;;19.30;99.90;;;;;;4992930;28;20399;-73
2022/06/22 08:24:23;;;;;;;;;;;19.40;99.90;;;;;;5023338;28;20386;-73
2022/06/22 08:26:49;;;;;;;;;;;19.60;99.90;;;;;;5012906;28;19924;-73
2022/06/22 08:29:15;;;;;;;;;;;19.60;99.90;;;;;;5011529;28;19925;-73
2022/06/22 08:31:43;;;;;;;;;;;19.60;99.90;;;;;;5044115;28;19917;-73
2022/06/22 08:34:12;;;;;;;;;;;19.70;99.90;;;;;;5034369;28;20407;-73
2022/06/22 08:36:43;;;;;;;;;;;19.70;99.90;;;;;;5044605;28;20410;-73
2022/06/22 08:39:23;;;;;;;;;;;19.40;99.90;;;;;;5045199;28;20277;-73
2022/06/22 08:41:51;;;;;;;;;;;19.70;99.90;;;;;;5009858;28;19921;-73
2022/06/22 08:44:20;;;;;;;;;;;19.80;99.90;;;;;;5028734;28;19924;-73
2022/06/22 08:47:00;;;;;;;;;;;20.00;99.90;;;;;;5042330;28;20382;-73
2022/06/22 08:49:39;;;;;;;;;;;20.00;99.90;;;;;;5011140;28;20314;-73
2022/06/22 08:52:10;;;;;;;;;;;20.10;99.90;;;;;;5038629;28;19925;-73
2022/06/22 08:54:53;;;;;;;;;;;20.20;99.90;;;;;;5045013;28;19925;-73
2022/06/22 08:57:40;;;;;;;;;;;20.30;99.90;;;;;;4998463;28;19917;-73
2022/06/22 09:00:14;;;;;;;;;;;20.30;99.90;;;;;;5014508;28;20377;-73
2022/06/22 09:02:55;;;;;;;;;;;20.40;99.90;;;;;;5043681;28;19921;-73
2022/06/22 09:05:39;;;;;;;;;;;20.40;99.90;;;;;;5044115;28;19984;-73
2022/06/22 09:08:11;;;;;;;;;;;20.50;99.90;;;;;;5041702;28;19922;-73
2022/06/22 09:10:55;;;;;;;;;;;20.60;99.90;;;;;;5013285;28;19931;-73
2022/06/22 09:13:23;;;;;;;;;;;20.60;99.90;;;;;;5039945;28;19924;-73
2022/06/22 09:16:00;;;;;;;;;;;20.70;99.90;;;;;;5004687;28;19918;-73
2022/06/22 09:18:26;;;;;;;;;;;20.80;99.90;;;;;;5026880;28;19929;-73
2022/06/22 09:20:51;;;;;;;;;;;20.70;99.90;;;;;;5039729;28;20015;-73
2022/06/22 09:23:25;;;;;;;;;;;20.80;99.90;;;;;;5025487;28;19917;-73
2022/06/22 09:26:26;;;;;;;;;;;20.80;99.20;;;;;;5028112;28;19917;-74
2022/06/22 09:28:56;;;;;;;;;;;20.90;99.90;;;;;;4986009;28;19924;-73
2022/06/22 09:31:22;;;;;;;;;;;21.00;99.90;;;;;;5023372;28;19917;-73
2022/06/22 09:34:09;;;;;;;;;;;21.10;99.90;;;;;;5014095;28;19924;-73
2022/06/22 09:36:47;;;;;;;;;;;21.20;98.90;;;;;;5029573;28;21351;-73
2022/06/22 09:39:31;;;;;;;;;;;21.10;99.40;;;;;;5044459;28;20032;-73
2022/06/22 09:41:59;;;;;;;;;;;21.30;97.20;;;;;;5047206;28;19926;-73
2022/06/22 09:44:37;;;;;;;;;;;21.30;99.90;;;;;;5047698;28;20286;-74
2022/06/22 09:47:02;;;;;;;;;;;21.30;99.90;;;;;;5044633;28;19917;-74
2022/06/22 09:49:46;;;;;;;;;;;21.50;99.90;;;;;;5012743;28;20271;-73
2022/06/22 09:52:30;;;;;;;;;;;21.40;99.90;;;;;;5014700;28;19932;-73
2022/06/22 09:58:05;;;;;;;;;;;21.60;99.90;;;;;;5027618;28;19917;-74
2022/06/22 10:00:49;;;;;;;;;;;21.60;98.60;;;;;;5026229;28;19963;-73
2022/06/22 10:03:24;;;;;;;;;;;21.60;99.90;;;;;;5012617;28;19925;-73
2022/06/22 10:06:04;;;;;;;;;;;21.80;99.90;;;;;;5010742;28;19978;-73
2022/06/22 10:08:44;;;;;;;;;;;21.70;99.90;;;;;;5012436;28;19967;-73
2022/06/22 10:11:31;;;;;;;;;;;21.70;96.90;;;;;;5014338;28;20378;-73
2022/06/22 10:14:15;;;;;;;;;;;21.70;97.50;;;;;;5012472;28;20390;-73
2022/06/22 10:16:53;;;;;;;;;;;21.80;95.70;;;;;;5040653;28;20000;-74
2022/06/22 10:19:26;;;;;;;;;;;21.90;99.70;;;;;;5028457;28;19933;-73
2022/06/22 10:22:13;;;;;;;;;;;21.90;97.40;;;;;;5013438;28;19921;-73
2022/06/22 10:24:44;;;;;;;;;;;22.00;99.90;;;;;;5018260;28;20267;-73
2022/06/22 10:27:31;;;;;;;;;;;22.10;99.90;;;;;;5030797;28;19964;-73
2022/06/22 10:30:09;;;;;;;;;;;22.20;95.00;;;;;;5000601;28;19964;-73
2022/06/22 10:32:41;;;;;;;;;;;22.20;99.90;;;;;;5012927;28;20438;-73
2022/06/22 10:35:18;;;;;;;;;;;22.20;99.90;;;;;;5028933;28;19979;-74
2022/06/22 10:37:53;;;;;;;;;;;22.10;96.70;;;;;;5043017;28;19929;-73
2022/06/22 10:45:08;;;;;;;;;;;22.40;99.90;;;;;;5011932;28;19921;-73
2022/06/22 10:45:49;;;;;;;;;;;22.50;99.90;;;;;;5012154;28;19917;-73
2022/06/22 10:48:33;;;;;;;;;;;22.60;97.00;;;;;;5045328;28;19923;-73
2022/06/22 10:51:08;;;;;;;;;;;22.60;98.20;;;;;;5032850;28;19917;-73
2022/06/22 10:53:33;;;;;;;;;;;22.30;98.60;;;;;;5029040;28;19979;-77
2022/06/22 10:56:05;;;;;;;;;;;22.50;99.90;;;;;;5044713;28;20387;-73
2022/06/22 10:58:58;;;;;;;;;;;22.40;99.40;;;;;;5046463;28;19917;-73
2022/06/22 11:01:44;;;;;;;;;;;22.50;99.10;;;;;;5028532;28;20326;-73
2022/06/22 11:04:16;;;;;;;;;;;22.60;99.60;;;;;;5029924;28;19948;-73
2022/06/22 11:07:01;;;;;;;;;;;22.60;99.80;;;;;;5026401;28;19921;-73
2022/06/22 11:09:41;;;;;;;;;;;22.60;96.00;;;;;;5039463;28;19925;-73
2022/06/22 11:12:06;;;;;;;;;;;22.40;94.70;;;;;;5028956;28;19917;-73
2022/06/22 11:14:35;;;;;;;;;;;22.40;95.50;;;;;;5028189;28;20262;-73
2022/06/22 11:17:10;;;;;;;;;;;22.60;99.60;;;;;;5025909;28;19921;-74
2022/06/22 11:19:36;;;;;;;;;;;22.70;96.50;;;;;;5035365;28;19925;-73
2022/06/22 11:22:14;;;;;;;;;;;22.80;99.80;;;;;;5012490;28;19925;-73
2022/06/22 11:24:51;;;;;;;;;;;22.80;98.70;;;;;;5045550;28;19922;-73
2022/06/22 11:33:21;;;;;;;;;;;22.90;97.40;;;;;;4994029;28;19917;-73
2022/06/22 11:36:06;;;;;;;;;;;22.90;98.50;;;;;;5009191;28;20321;-73
2022/06/22 11:38:38;;;;;;;;;;;22.90;96.80;;;;;;5045863;28;19917;-73
2022/06/22 11:41:22;;;;;;;;;;;22.90;95.20;;;;;;5036705;28;19972;-73
2022/06/22 11:43:48;;;;;;;;;;;22.80;97.80;;;;;;5042862;28;19917;-73
2022/06/22 11:46:13;;;;;;;;;;;22.60;94.60;;;;;;5027362;28;20337;-73
2022/06/22 11:48:57;;;;;;;;;;;22.80;96.90;;;;;;5011561;28;20382;-73
2022/06/22 11:51:33;;;;;;;;;;;22.60;91.00;;;;;;5017879;28;20378;-73
2022/06/22 11:54:08;;;;;;;;;;;22.70;95.90;;;;;;5040819;28;19964;-73
2022/06/22 11:56:52;;;;;;;;;;;22.80;96.40;;;;;;5022000;28;19925;-73
2022/06/22 11:59:36;;;;;;;;;;;22.60;93.90;;;;;;5036033;28;19925;-73
2022/06/22 12:02:25;;;;;;;;;;;22.70;93.40;;;;;;5044408;28;19921;-73
2022/06/22 12:05:05;;;;;;;;;;;22.70;94.20;;;;;;5010973;28;19921;-73
2022/06/22 12:07:47;;;;;;;;;;;22.70;92.60;;;;;;5044300;28;19983;-73
2022/06/22 12:10:31;;;;;;;;;;;22.70;95.70;;;;;;5000280;28;20051;-73
2022/06/22 12:13:15;;;;;;;;;;;22.80;95.90;;;;;;5027047;28;19921;-73
2022/06/22 12:16:00;;;;;;;;;;;22.80;96.20;;;;;;5042202;28;19917;-73
2022/06/22 12:18:34;;;;;;;;;;;22.70;90.20;;;;;;5020668;28;20335;-74
2022/06/22 12:21:06;;;;;;;;;;;22.80;94.00;;;;;;5013770;28;19925;-73
2022/06/22 12:23:43;;;;;;;;;;;22.80;93.80;;;;;;5008042;28;19932;-73
2022/06/22 12:26:15;;;;;;;;;;;22.80;96.50;;;;;;5009747;28;19924;-73
2022/06/22 12:29:00;;;;;;;;;;;22.80;95.10;;;;;;5015508;28;20377;-73
2022/06/22 12:31:30;;;;;;;;;;;22.70;88.40;;;;;;5003546;28;19918;-73
2022/06/22 12:34:02;;;;;;;;;;;22.70;86.30;;;;;;5006954;28;20393;-73
2022/06/22 12:36:28;;;;;;;;;;;22.80;94.90;;;;;;5032354;28;19979;-73
2022/06/22 12:38:56;;;;;;;;;;;22.80;87.50;;;;;;5023530;28;19921;-72
2022/06/22 12:41:40;;;;;;;;;;;22.80;94.00;;;;;;5021552;28;19921;-75
2022/06/22 12:44:17;;;;;;;;;;;22.90;92.00;;;;;;4996428;28;19921;-74
2022/06/22 12:46:43;;;;;;;;;;;22.90;90.40;;;;;;5028796;28;20025;-74
2022/06/22 12:49:18;;;;;;;;;;;22.70;92.10;;;;;;5007006;28;20012;-74
2022/06/22 12:51:51;;;;;;;;;;;22.70;93.40;;;;;;5011182;28;19940;-75
2022/06/22 12:54:20;;;;;;;;;;;22.60;95.30;;;;;;5023080;28;19924;-74
2022/06/22 12:56:49;;;;;;;;;;;22.60;95.00;;;;;;5027945;28;19967;-74
2022/06/22 12:59:17;;;;;;;;;;;22.60;96.40;;;;;;5029097;28;19925;-74
2022/06/22 13:01:42;;;;;;;;;;;22.70;96.70;;;;;;4995337;28;20068;-74
2022/06/22 13:04:21;;;;;;;;;;;22.70;93.50;;;;;;5019038;28;19995;-74
2022/06/22 13:06:48;;;;;;;;;;;22.60;91.60;;;;;;5008586;28;20378;-74
2022/06/22 13:09:14;;;;;;;;;;;22.60;94.70;;;;;;5031179;28;19917;-74
2022/06/22 13:11:40;;;;;;;;;;;22.50;95.20;;;;;;5019373;28;20381;-74
2022/06/22 13:14:15;;;;;;;;;;;22.40;96.50;;;;;;5031646;28;19928;-74
2022/06/22 13:16:45;;;;;;;;;;;22.50;85.40;;;;;;5015788;28;19925;-74
2022/06/22 13:19:21;;;;;;;;;;;22.50;94.80;;;;;;5011188;28;20385;-74
2022/06/22 13:21:54;;;;;;;;;;;22.50;97.10;;;;;;5015435;28;19922;-74
2022/06/22 13:24:32;;;;;;;;;;;22.40;94.80;;;;;;5032319;28;19917;-74
2022/06/22 13:27:02;;;;;;;;;;;22.40;96.20;;;;;;5032139;28;19971;-74
2022/06/22 13:29:34;;;;;;;;;;;22.50;96.40;;;;;;5026974;28;20296;-75
2022/06/22 13:32:03;;;;;;;;;;;22.40;96.20;;;;;;5048063;28;20388;-74
2022/06/22 13:34:34;;;;;;;;;;;22.40;98.60;;;;;;5031462;28;20011;-74
2022/06/22 13:37:13;;;;;;;;;;;22.50;97.20;;;;;;4995795;28;20382;-74
2022/06/22 13:39:39;;;;;;;;;;;22.50;97.70;;;;;;4995738;28;19929;-74
2022/06/22 13:42:09;;;;;;;;;;;22.40;96.40;;;;;;5013793;28;20294;-74
2022/06/22 13:44:50;;;;;;;;;;;22.40;97.30;;;;;;5047517;28;20358;-74
2022/06/22 13:47:34;;;;;;;;;;;22.40;94.70;;;;;;5028598;28;19923;-74
2022/06/22 13:50:18;;;;;;;;;;;22.30;94.40;;;;;;5042829;28;19921;-74
2022/06/22 13:52:45;;;;;;;;;;;22.40;96.50;;;;;;5031407;28;20448;-78
2022/06/22 13:55:26;;;;;;;;;;;22.30;97.30;;;;;;5042386;28;20392;-76
2022/06/22 13:57:51;;;;;;;;;;;22.40;97.90;;;;;;5015112;28;19963;-76
2022/06/22 14:00:23;;;;;;;;;;;22.40;99.90;;;;;;5035736;28;19917;-76
2022/06/22 14:03:03;;;;;;;;;;;22.40;99.40;;;;;;5030958;28;19921;-76
2022/06/22 14:05:41;;;;;;;;;;;22.50;98.00;;;;;;5048388;28;19972;-76
2022/06/22 14:08:25;;;;;;;;;;;22.40;99.00;;;;;;5042877;28;19918;-76
2022/06/22 14:10:54;;;;;;;;;;;22.50;99.20;;;;;;5045668;28;19917;-76
2022/06/22 14:13:39;;;;;;;;;;;22.50;99.70;;;;;;5045630;28;19917;-76
2022/06/22 14:16:14;;;;;;;;;;;22.50;98.80;;;;;;5015720;28;19923;-77
2022/06/22 14:18:51;;;;;;;;;;;22.70;99.90;;;;;;5029399;28;20327;-77
2022/06/22 14:21:22;;;;;;;;;;;22.50;98.60;;;;;;5014031;28;19925;-77
2022/06/22 14:23:48;;;;;;;;;;;22.50;99.90;;;;;;5046244;28;19940;-72
2022/06/22 14:26:23;;;;;;;;;;;22.50;99.10;;;;;;5016196;28;20321;-72
2022/06/22 14:28:48;;;;;;;;;;;22.50;99.30;;;;;;5026568;28;19925;-73
2022/06/22 14:31:19;;;;;;;;;;;22.40;99.00;;;;;;5027331;28;19928;-73
2022/06/22 14:33:52;;;;;;;;;;;22.50;99.90;;;;;;5027013;28;19972;-73
2022/06/22 14:36:21;;;;;;;;;;;22.60;99.90;;;;;;5045021;28;19917;-72
2022/06/22 14:38:50;;;;;;;;;;;22.50;98.90;;;;;;5044460;28;20369;-73
2022/06/22 14:41:19;;;;;;;;;;;22.50;99.90;;;;;;5046042;28;19925;-73
2022/06/22 14:44:03;;;;;;;;;;;22.50;99.90;;;;;;5012468;28;19923;-72
2022/06/22 14:46:36;;;;;;;;;;;22.60;99.90;;;;;;5004780;28;19924;-72
2022/06/22 14:49:25;;;;;;;;;;;22.50;99.90;;;;;;5012411;28;20271;-72
2022/06/22 14:51:58;;;;;;;;;;;22.70;99.90;;;;;;5039276;28;19932;-71
2022/06/22 14:54:27;;;;;;;;;;;22.60;99.90;;;;;;5013312;28;19964;-70
2022/06/22 14:57:06;;;;;;;;;;;22.60;99.90;;;;;;5044420;28;19917;-70
2022/06/22 14:59:35;;;;;;;;;;;22.50;99.70;;;;;;5026594;28;19957;-70
2022/06/22 15:02:08;;;;;;;;;;;22.50;99.10;;;;;;5027245;28;19956;-70
2022/06/22 15:04:51;;;;;;;;;;;22.50;99.90;;;;;;5045170;28;19921;-70
2022/06/22 15:07:24;;;;;;;;;;;22.50;99.90;;;;;;5045720;28;19966;-70
2022/06/22 15:09:58;;;;;;;;;;;22.40;99.90;;;;;;5010426;28;19924;-70